Time;durP1;ratioP1;P1;durP2;ratioP2;P2;SDS_P1;SDS_P2;PMS_P1;PMS_P2;Temp;Humidity;BMP_temperature;BMP_pressure;BME280_temperature;BME280_humidity;BME280_pressure;Samples;Min_cycle;Max_cycle;Signal;HPM_P1;HPM_P2
2021/08/28 00:01:46;;;;;;;5.25;3.20;;;13.40;91.00;;;;;;4986512;28;20092;-68
2021/08/28 00:04:12;;;;;;;4.50;3.25;;;13.40;91.20;;;;;;4988940;28;20022;-69
2021/08/28 00:06:38;;;;;;;6.20;3.30;;;13.40;91.30;;;;;;4992371;28;20117;-68
2021/08/28 00:09:03;;;;;;;5.10;3.00;;;13.40;91.40;;;;;;4992465;28;20023;-69
2021/08/28 00:11:29;;;;;;;3.80;2.92;;;13.40;91.40;;;;;;4986885;28;20038;-68
2021/08/28 00:13:55;;;;;;;5.88;3.25;;;13.40;91.50;;;;;;4976878;28;20038;-68
2021/08/28 00:16:20;;;;;;;5.18;3.13;;;13.30;91.60;;;;;;4990895;28;20022;-68
2021/08/28 00:18:46;;;;;;;5.07;3.40;;;13.30;91.60;;;;;;4988946;28;20106;-68
2021/08/28 00:21:12;;;;;;;5.55;3.30;;;13.30;91.50;;;;;;4988472;28;20030;-69
2021/08/28 00:23:37;;;;;;;3.97;3.03;;;13.20;91.70;;;;;;4986289;28;20073;-69
2021/08/28 00:26:03;;;;;;;3.78;2.85;;;13.20;91.70;;;;;;4997075;28;20026;-69
2021/08/28 00:28:29;;;;;;;4.75;2.83;;;13.20;91.70;;;;;;4983314;28;20093;-69
2021/08/28 00:30:56;;;;;;;4.13;2.72;;;13.30;91.70;;;;;;4970967;28;20038;-69
2021/08/28 00:33:22;;;;;;;6.80;3.25;;;13.30;91.60;;;;;;4970433;28;20410;-68
2021/08/28 00:35:47;;;;;;;4.25;2.92;;;13.30;91.70;;;;;;4972270;28;20093;-68
2021/08/28 00:38:13;;;;;;;4.13;3.15;;;13.20;91.70;;;;;;4976723;28;20042;-69
2021/08/28 00:40:39;;;;;;;3.97;2.67;;;13.20;91.70;;;;;;4987205;28;20073;-68
2021/08/28 00:43:05;;;;;;;4.35;3.15;;;13.30;91.70;;;;;;4990284;28;20363;-68
2021/08/28 00:45:32;;;;;;;5.80;3.67;;;13.20;91.60;;;;;;4989719;28;20021;-68
2021/08/28 00:48:14;;;;;;;5.93;3.13;;;13.30;91.70;;;;;;4990879;28;20034;-68
2021/08/28 00:50:43;;;;;;;5.47;3.55;;;13.30;91.50;;;;;;4992390;28;20027;-68
2021/08/28 00:53:10;;;;;;;5.13;3.40;;;13.30;91.60;;;;;;4986395;28;20164;-69
2021/08/28 00:55:48;;;;;;;5.25;2.92;;;13.30;91.60;;;;;;4986585;28;20053;-68
2021/08/28 00:58:14;;;;;;;4.38;3.28;;;13.30;91.70;;;;;;4982890;28;20030;-69
2021/08/28 01:01:04;;;;;;;3.72;3.28;;;13.30;91.70;;;;;;4992508;28;20046;-69
2021/08/28 01:03:32;;;;;;;4.65;3.25;;;13.30;91.60;;;;;;4979479;28;20046;-68
2021/08/28 01:06:33;;;;;;;5.05;3.35;;;13.20;91.90;;;;;;4980371;28;20022;-68
2021/08/28 01:09:13;;;;;;;7.63;3.80;;;13.20;91.90;;;;;;4975272;28;20053;-69
2021/08/28 01:11:48;;;;;;;7.20;3.67;;;13.20;91.80;;;;;;4990108;28;20371;-69
2021/08/28 01:14:16;;;;;;;5.30;3.05;;;13.20;92.30;;;;;;4988644;28;20390;-69
2021/08/28 01:16:44;;;;;;;6.85;3.92;;;13.20;92.10;;;;;;4989196;28;20121;-69
2021/08/28 01:19:18;;;;;;;7.95;3.80;;;13.20;92.20;;;;;;4990469;28;20061;-68
2021/08/28 01:21:45;;;;;;;5.55;3.60;;;13.10;92.20;;;;;;4990541;28;20030;-69
2021/08/28 01:24:14;;;;;;;5.82;3.58;;;13.10;92.40;;;;;;4988474;28;20490;-69
2021/08/28 01:26:57;;;;;;;;;;;13.00;92.50;;;;;;4989164;28;20034;-68
2021/08/28 01:29:30;;;;;;;5.13;3.38;;;13.00;92.60;;;;;;4987959;28;19914;-68
2021/08/28 01:31:57;;;;;;;7.80;3.33;;;13.00;92.50;;;;;;4999951;28;20046;-69
2021/08/28 01:34:24;;;;;;;4.22;3.15;;;13.00;92.60;;;;;;4992303;28;20034;-68
2021/08/28 01:36:51;;;;;;;5.90;3.55;;;13.10;92.40;;;;;;4983722;28;20034;-68
2021/08/28 01:39:19;;;;;;;9.25;3.35;;;13.00;92.50;;;;;;4981538;28;20129;-69
2021/08/28 01:41:48;;;;;;;5.38;3.70;;;13.00;92.60;;;;;;4971240;28;20034;-68
2021/08/28 01:44:15;;;;;;;5.28;3.55;;;13.00;92.60;;;;;;4967394;28;20065;-69
2021/08/28 01:46:41;;;;;;;5.20;3.55;;;13.00;92.70;;;;;;4975941;28;20031;-69
2021/08/28 01:49:08;;;;;;;5.97;4.05;;;13.00;92.80;;;;;;4972289;28;20052;-68
2021/08/28 01:51:34;;;;;;;5.95;4.13;;;13.00;92.90;;;;;;4969364;28;20041;-68
2021/08/28 01:54:00;;;;;;;5.90;3.45;;;12.90;93.00;;;;;;4968429;28;20038;-69
2021/08/28 01:56:26;;;;;;;5.70;3.83;;;13.00;93.00;;;;;;4970712;28;20109;-69
2021/08/28 01:58:53;;;;;;;5.53;3.78;;;13.00;93.00;;;;;;4972700;28;20222;-68
2021/08/28 02:01:19;;;;;;;6.30;3.67;;;13.00;93.00;;;;;;4964513;28;20469;-68
2021/08/28 02:03:45;;;;;;;5.22;3.55;;;13.00;93.40;;;;;;4971039;28;20025;-69
2021/08/28 02:06:18;;;;;;;5.68;3.90;;;13.00;92.90;;;;;;4972510;28;20026;-69
2021/08/28 02:08:55;;;;;;;12.40;3.95;;;13.00;93.20;;;;;;4975450;28;20062;-69
2021/08/28 02:11:34;;;;;;;6.57;3.80;;;13.00;93.10;;;;;;4975686;28;20034;-69
2021/08/28 02:14:06;;;;;;;;;;;13.00;93.30;;;;;;4986810;28;21554;-70
2021/08/28 02:16:34;;;;;;;6.28;3.50;;;13.00;93.20;;;;;;4977252;28;19917;-69
2021/08/28 02:19:04;;;;;;;;;;;13.00;93.20;;;;;;4976101;28;20076;-68
2021/08/28 02:21:32;;;;;;;5.13;3.05;;;12.90;93.60;;;;;;4976966;28;19925;-69
2021/08/28 02:24:03;;;;;;;5.28;3.33;;;12.90;93.30;;;;;;4978680;28;20030;-69
2021/08/28 02:27:05;;;;;;;7.63;3.78;;;12.90;93.40;;;;;;4979083;28;20126;-69
2021/08/28 02:29:35;;;;;;;4.60;3.10;;;12.90;93.50;;;;;;4971820;28;20038;-68
2021/08/28 02:32:01;;;;;;;6.88;3.58;;;13.00;93.60;;;;;;4972093;28;20049;-69
2021/08/28 02:34:31;;;;;;;7.15;4.13;;;12.90;93.50;;;;;;4974646;28;20077;-69
2021/08/28 02:36:58;;;;;;;6.45;4.15;;;13.00;93.60;;;;;;4979144;28;20057;-69
2021/08/28 02:39:25;;;;;;;6.55;3.60;;;13.00;93.60;;;;;;4990398;28;20095;-70
2021/08/28 02:41:51;;;;;;;7.72;3.60;;;13.00;93.40;;;;;;4990139;28;20915;-69
2021/08/28 02:44:18;;;;;;;5.32;3.53;;;12.90;93.50;;;;;;4993631;28;20033;-69
2021/08/28 02:46:46;;;;;;;7.40;3.70;;;12.90;93.70;;;;;;4991193;28;20026;-69
2021/08/28 02:49:13;;;;;;;6.70;4.10;;;12.90;93.80;;;;;;4994382;28;20022;-69
2021/08/28 02:51:40;;;;;;;9.88;4.22;;;13.00;93.70;;;;;;4989267;28;20532;-68
2021/08/28 02:54:11;;;;;;;4.53;3.10;;;13.00;93.60;;;;;;5001389;28;20030;-68
2021/08/28 02:56:38;;;;;;;7.38;3.60;;;13.00;93.40;;;;;;4989383;28;20041;-69
2021/08/28 02:59:04;;;;;;;5.70;3.30;;;13.00;93.50;;;;;;4988415;28;20467;-68
2021/08/28 03:01:32;;;;;;;5.63;3.60;;;13.00;93.50;;;;;;4992664;28;20069;-69
2021/08/28 03:03:58;;;;;;;;;;;13.00;93.60;;;;;;4989821;28;20035;-69
2021/08/28 03:06:29;;;;;;;5.35;3.15;;;13.00;93.80;;;;;;4998213;28;20258;-69
2021/08/28 03:08:56;;;;;;;8.00;3.70;;;13.00;93.70;;;;;;4992446;28;20022;-69
2021/08/28 03:11:22;;;;;;;5.28;3.83;;;12.90;93.70;;;;;;4989186;28;20454;-69
2021/08/28 03:13:48;;;;;;;6.38;3.35;;;13.00;93.70;;;;;;4991476;28;20046;-68
2021/08/28 03:16:18;;;;;;;5.45;3.78;;;13.00;93.50;;;;;;4987971;28;20037;-69
2021/08/28 03:18:46;;;;;;;5.32;3.42;;;12.90;93.40;;;;;;4989098;28;20382;-70
2021/08/28 03:21:13;;;;;;;6.35;3.70;;;13.00;93.40;;;;;;4990426;28;20061;-69
2021/08/28 03:23:40;;;;;;;5.75;3.95;;;12.90;93.50;;;;;;4987088;28;20038;-69
2021/08/28 03:26:08;;;;;;;7.10;3.90;;;12.90;93.50;;;;;;4994700;28;20014;-68
2021/08/28 03:28:35;;;;;;;5.68;3.25;;;12.90;93.50;;;;;;4989735;28;20475;-69
2021/08/28 03:31:01;;;;;;;5.40;3.95;;;12.90;93.70;;;;;;4994276;28;20486;-68
2021/08/28 03:33:29;;;;;;;5.30;3.95;;;12.90;93.60;;;;;;4986888;28;20128;-68
2021/08/28 03:35:56;;;;;;;5.35;3.47;;;12.90;93.60;;;;;;4988418;28;20084;-69
2021/08/28 03:38:22;;;;;;;5.90;3.88;;;12.90;93.40;;;;;;4992127;28;20053;-69
2021/08/28 03:40:48;;;;;;;6.43;3.65;;;12.90;93.60;;;;;;4992680;28;20395;-69
2021/08/28 03:43:13;;;;;;;6.95;4.10;;;12.90;93.60;;;;;;4983163;28;20022;-69
2021/08/28 03:45:40;;;;;;;6.30;3.95;;;12.90;93.70;;;;;;4991243;28;20804;-69
2021/08/28 03:48:06;;;;;;;5.70;3.15;;;12.90;93.60;;;;;;4987687;28;20054;-68
2021/08/28 03:50:32;;;;;;;6.20;3.63;;;12.90;93.60;;;;;;4994563;28;20049;-68
2021/08/28 03:52:57;;;;;;;5.05;3.35;;;12.90;93.70;;;;;;4982514;28;20061;-69
2021/08/28 03:55:23;;;;;;;6.93;3.80;;;12.90;93.80;;;;;;4987555;28;20041;-69
2021/08/28 03:57:49;;;;;;;4.85;3.42;;;12.90;94.00;;;;;;4992985;28;20113;-70
2021/08/28 04:00:15;;;;;;;4.75;3.35;;;12.90;94.00;;;;;;4989938;28;20019;-68
2021/08/28 04:02:40;;;;;;;6.72;3.70;;;12.90;94.00;;;;;;4986544;28;20475;-69
2021/08/28 04:05:06;;;;;;;4.90;3.72;;;12.90;93.90;;;;;;4987868;28;20038;-68
2021/08/28 04:07:36;;;;;;;7.45;4.00;;;12.90;93.90;;;;;;4992248;28;20034;-69
2021/08/28 04:10:02;;;;;;;5.78;3.33;;;12.90;93.80;;;;;;4992540;28;20054;-71
2021/08/28 04:12:27;;;;;;;6.85;3.95;;;12.90;93.80;;;;;;4989857;28;20090;-68
2021/08/28 04:14:53;;;;;;;7.07;4.10;;;12.90;93.90;;;;;;4986690;28;20363;-70
2021/08/28 04:17:18;;;;;;;6.55;3.60;;;12.90;93.90;;;;;;4986204;28;20045;-69
2021/08/28 04:19:44;;;;;;;4.95;3.17;;;12.90;93.80;;;;;;4987615;28;20030;-68
2021/08/28 04:22:10;;;;;;;5.25;3.60;;;12.90;93.90;;;;;;4991224;28;20034;-69
2021/08/28 04:24:35;;;;;;;6.88;4.07;;;13.00;93.70;;;;;;4986805;28;20038;-69
2021/08/28 04:27:03;;;;;;;4.72;3.65;;;13.00;93.60;;;;;;4987079;28;20396;-69
2021/08/28 04:29:29;;;;;;;6.47;3.35;;;13.00;93.60;;;;;;4990496;28;20026;-68
2021/08/28 04:31:55;;;;;;;6.43;3.80;;;13.00;93.70;;;;;;4995253;28;20057;-68
2021/08/28 04:34:20;;;;;;;5.72;4.00;;;12.90;93.70;;;;;;4985558;28;20088;-69
2021/08/28 04:36:46;;;;;;;5.38;3.92;;;13.00;93.70;;;;;;4981153;28;20037;-68
2021/08/28 04:39:12;;;;;;;6.15;3.92;;;13.00;93.90;;;;;;4993137;28;20049;-69
2021/08/28 04:41:37;;;;;;;5.40;3.97;;;12.90;94.00;;;;;;4986451;28;20060;-69
2021/08/28 04:44:03;;;;;;;5.80;4.07;;;12.90;93.90;;;;;;4985929;28;20102;-69
2021/08/28 04:46:29;;;;;;;7.00;3.88;;;13.00;93.90;;;;;;4990216;28;20026;-69
2021/08/28 04:48:55;;;;;;;6.70;4.20;;;13.00;93.70;;;;;;4987543;28;20019;-69
2021/08/28 04:51:20;;;;;;;8.52;4.43;;;13.00;93.90;;;;;;4987460;28;20038;-68
2021/08/28 04:53:46;;;;;;;6.32;4.35;;;12.90;94.10;;;;;;4988733;28;20030;-69
2021/08/28 04:56:11;;;;;;;8.52;5.05;;;12.90;94.10;;;;;;4989714;28;20459;-68
2021/08/28 04:58:37;;;;;;;5.05;4.18;;;12.90;94.20;;;;;;4990195;28;20041;-68
2021/08/28 05:01:03;;;;;;;7.50;4.18;;;12.90;94.10;;;;;;4989458;28;20494;-68
2021/08/28 05:03:28;;;;;;;5.03;4.05;;;12.90;94.10;;;;;;4984429;28;20019;-68
2021/08/28 05:05:54;;;;;;;6.57;4.10;;;12.80;94.30;;;;;;4991562;28;20042;-69
2021/08/28 05:08:23;;;;;;;5.85;3.60;;;12.80;94.20;;;;;;4989831;28;20030;-68
2021/08/28 05:10:49;;;;;;;5.15;3.58;;;12.80;93.70;;;;;;4985275;28;22014;-68
2021/08/28 05:13:15;;;;;;;6.05;3.97;;;12.80;93.70;;;;;;4984541;28;20080;-68
2021/08/28 05:15:41;;;;;;;4.05;2.72;;;12.80;93.70;;;;;;4981640;28;20059;-69
2021/08/28 05:18:07;;;;;;;3.97;3.20;;;12.80;93.30;;;;;;4988793;28;20050;-69
2021/08/28 05:20:33;;;;;;;4.60;3.22;;;12.80;93.20;;;;;;4993109;28;20099;-68
2021/08/28 05:22:58;;;;;;;6.88;3.25;;;12.70;93.40;;;;;;4989794;28;20026;-69
2021/08/28 05:25:25;;;;;;;4.18;3.08;;;12.70;93.60;;;;;;4990532;28;20035;-68
2021/08/28 05:27:51;;;;;;;5.78;3.72;;;12.70;93.70;;;;;;4988734;28;20512;-68
2021/08/28 05:30:17;;;;;;;4.10;3.13;;;12.70;93.80;;;;;;4986915;28;20018;-68
2021/08/28 05:32:43;;;;;;;4.05;3.40;;;12.70;93.90;;;;;;4984725;28;20126;-68
2021/08/28 05:35:10;;;;;;;4.13;3.70;;;12.80;93.80;;;;;;4987319;28;20042;-68
2021/08/28 05:37:36;;;;;;;7.57;4.00;;;12.80;93.90;;;;;;4990599;28;20027;-68
2021/08/28 05:40:03;;;;;;;6.05;3.25;;;12.90;94.00;;;;;;4988903;28;20356;-68
2021/08/28 05:42:29;;;;;;;5.25;3.67;;;12.90;93.90;;;;;;4987939;28;20037;-69
2021/08/28 05:44:55;;;;;;;5.40;2.80;;;12.80;93.70;;;;;;4984001;28;20026;-68
2021/08/28 05:47:20;;;;;;;5.38;3.00;;;12.80;93.70;;;;;;4989600;28;20026;-68
2021/08/28 05:49:46;;;;;;;4.53;2.90;;;12.80;93.90;;;;;;4991776;28;20034;-68
2021/08/28 05:52:12;;;;;;;4.65;3.28;;;12.80;93.90;;;;;;4981330;28;20609;-68
2021/08/28 05:54:38;;;;;;;3.83;3.10;;;12.80;94.10;;;;;;4980571;28;20034;-69
2021/08/28 05:57:04;;;;;;;3.83;2.38;;;12.90;94.60;;;;;;4986049;28;20031;-68
2021/08/28 05:59:30;;;;;;;3.38;2.75;;;12.90;94.00;;;;;;4992618;28;20034;-69
2021/08/28 06:01:55;;;;;;;2.80;2.50;;;12.90;94.00;;;;;;4980087;28;20026;-70
2021/08/28 06:04:21;;;;;;;3.10;2.60;;;12.90;94.00;;;;;;4989698;28;20079;-69
2021/08/28 06:06:47;;;;;;;5.60;2.78;;;13.00;94.10;;;;;;4989152;28;20030;-69
2021/08/28 06:09:13;;;;;;;3.28;2.45;;;12.90;93.90;;;;;;4988449;28;20038;-69
2021/08/28 06:11:38;;;;;;;4.00;3.00;;;12.90;94.10;;;;;;4984665;28;20034;-70
2021/08/28 06:14:04;;;;;;;5.18;2.88;;;12.90;94.50;;;;;;4986721;28;20041;-69
2021/08/28 06:16:30;;;;;;;3.33;2.88;;;13.00;94.10;;;;;;4985692;28;20042;-69
2021/08/28 06:18:58;;;;;;;5.50;3.22;;;13.00;94.00;;;;;;4984721;28;20038;-69
2021/08/28 06:21:24;;;;;;;;;;;13.10;93.90;;;;;;4988608;28;20030;-69
2021/08/28 06:23:50;;;;;;;5.22;3.05;;;13.10;94.00;;;;;;4981532;28;19925;-69
2021/08/28 06:26:16;;;;;;;3.60;2.60;;;13.10;93.90;;;;;;4981586;28;20081;-68
2021/08/28 06:28:42;;;;;;;3.50;2.78;;;13.20;93.80;;;;;;4989796;28;20352;-69
2021/08/28 06:31:07;;;;;;;4.47;2.97;;;13.20;93.90;;;;;;4985389;28;20052;-69
2021/08/28 06:33:33;;;;;;;4.40;2.88;;;13.20;93.90;;;;;;4981255;28;20034;-70
2021/08/28 06:35:59;;;;;;;3.22;2.78;;;13.30;93.70;;;;;;4980849;28;20410;-69
2021/08/28 06:38:24;;;;;;;3.17;2.85;;;13.30;93.30;;;;;;4989266;28;20050;-69
2021/08/28 06:40:50;;;;;;;3.47;2.78;;;13.30;93.30;;;;;;4994720;28;20033;-71
2021/08/28 06:43:16;;;;;;;3.60;2.70;;;13.30;92.90;;;;;;4987359;28;20034;-69
2021/08/28 06:45:41;;;;;;;3.40;2.72;;;13.30;92.70;;;;;;4984498;28;20105;-70
2021/08/28 06:48:08;;;;;;;3.50;3.00;;;13.30;92.70;;;;;;4994366;28;20031;-68
2021/08/28 06:50:34;;;;;;;3.33;2.90;;;13.30;92.80;;;;;;4989895;28;20018;-69
2021/08/28 06:53:00;;;;;;;4.70;2.63;;;13.30;93.20;;;;;;4992177;28;20137;-68
2021/08/28 06:55:26;;;;;;;2.90;2.55;;;13.30;92.80;;;;;;4991162;28;20038;-68
2021/08/28 06:57:51;;;;;;;3.83;2.30;;;13.30;93.00;;;;;;4992599;28;20027;-68
2021/08/28 07:00:17;;;;;;;3.22;2.30;;;13.30;92.90;;;;;;4990266;28;20027;-70
2021/08/28 07:02:44;;;;;;;3.55;2.22;;;13.40;92.90;;;;;;4994811;28;20121;-68
2021/08/28 07:05:10;;;;;;;6.53;3.20;;;13.40;92.90;;;;;;4990954;28;20378;-69
2021/08/28 07:07:36;;;;;;;4.90;2.58;;;13.50;93.30;;;;;;4989032;28;20029;-68
2021/08/28 07:10:03;;;;;;;3.17;2.67;;;13.50;92.60;;;;;;4993403;28;20379;-69
2021/08/28 07:12:29;;;;;;;2.97;2.50;;;13.40;92.60;;;;;;4990717;28;20026;-69
2021/08/28 07:14:55;;;;;;;3.58;2.55;;;13.40;92.10;;;;;;4989331;28;20308;-69
2021/08/28 07:17:21;;;;;;;4.13;2.40;;;13.40;92.00;;;;;;4992838;28;20081;-69
2021/08/28 07:19:47;;;;;;;3.97;2.85;;;13.40;91.90;;;;;;4993321;28;20090;-69
2021/08/28 07:22:13;;;;;;;3.17;2.40;;;13.50;92.20;;;;;;4989581;28;20111;-69
2021/08/28 07:24:38;;;;;;;3.38;2.95;;;13.50;92.40;;;;;;4987606;28;20120;-69
2021/08/28 07:27:04;;;;;;;3.55;2.50;;;13.50;92.10;;;;;;4994004;28;20042;-69
2021/08/28 07:29:30;;;;;;;5.82;2.60;;;13.60;92.20;;;;;;4992424;28;20542;-69
2021/08/28 07:31:56;;;;;;;4.40;2.65;;;13.60;92.20;;;;;;4989958;28;20038;-68
2021/08/28 07:34:21;;;;;;;3.20;2.83;;;13.60;92.00;;;;;;4984656;28;20034;-70
2021/08/28 07:36:47;;;;;;;3.33;2.80;;;13.60;92.40;;;;;;4979815;28;20038;-70
2021/08/28 07:39:13;;;;;;;3.30;2.85;;;13.60;91.80;;;;;;4976781;28;20203;-69
2021/08/28 07:41:39;;;;;;;3.45;2.72;;;13.70;91.50;;;;;;4985717;28;20122;-70
2021/08/28 07:44:05;;;;;;;3.50;2.50;;;13.70;92.20;;;;;;4979350;28;20026;-70
2021/08/28 07:46:31;;;;;;;3.80;2.70;;;13.70;91.80;;;;;;4978823;28;20041;-70
2021/08/28 07:48:56;;;;;;;3.33;2.72;;;13.80;91.80;;;;;;4981628;28;20451;-69
2021/08/28 07:51:22;;;;;;;2.97;2.67;;;13.70;92.00;;;;;;4980699;28;20037;-69
2021/08/28 07:53:48;;;;;;;3.60;2.65;;;13.70;92.00;;;;;;4980286;28;20038;-69
2021/08/28 07:56:14;;;;;;;2.75;2.40;;;13.80;91.50;;;;;;4982399;28;20069;-68
2021/08/28 07:58:39;;;;;;;2.58;2.35;;;13.90;91.60;;;;;;4979938;28;20479;-70
2021/08/28 08:01:05;;;;;;;3.08;2.45;;;13.90;91.50;;;;;;4979623;28;20048;-69
2021/08/28 08:03:31;;;;;;;2.92;2.72;;;13.80;91.40;;;;;;4980841;28;21525;-68
2021/08/28 08:05:56;;;;;;;5.38;3.03;;;13.80;91.50;;;;;;4981556;28;20026;-70
2021/08/28 08:08:22;;;;;;;3.00;2.38;;;13.80;91.30;;;;;;4984529;28;20495;-68
2021/08/28 08:10:47;;;;;;;4.38;2.90;;;13.70;91.10;;;;;;4992466;28;20034;-68
2021/08/28 08:13:13;;;;;;;5.15;2.90;;;13.70;91.40;;;;;;4988246;28;20026;-69
2021/08/28 08:15:39;;;;;;;3.63;2.63;;;13.70;92.20;;;;;;4991935;28;20050;-68
2021/08/28 08:18:04;;;;;;;3.88;2.80;;;13.70;91.80;;;;;;4983765;28;20113;-69
2021/08/28 08:20:30;;;;;;;3.22;2.63;;;13.90;92.40;;;;;;4991729;28;20033;-68
2021/08/28 08:22:57;;;;;;;3.15;2.28;;;14.10;91.80;;;;;;4991719;28;20117;-69
2021/08/28 08:25:22;;;;;;;2.90;2.60;;;14.30;91.50;;;;;;4993916;28;20467;-69
2021/08/28 08:27:48;;;;;;;2.75;1.95;;;14.40;90.60;;;;;;4993714;28;20029;-69
2021/08/28 08:30:14;;;;;;;3.45;2.42;;;14.30;90.10;;;;;;4988247;28;20039;-69
2021/08/28 08:32:39;;;;;;;2.90;2.63;;;14.30;89.30;;;;;;4994791;28;20125;-69
2021/08/28 08:35:05;;;;;;;2.88;2.55;;;14.40;91.30;;;;;;4987658;28;20049;-68
2021/08/28 08:37:31;;;;;;;3.95;2.08;;;14.40;90.70;;;;;;4991457;28;20105;-69
2021/08/28 08:39:56;;;;;;;3.83;2.60;;;14.40;90.30;;;;;;4993057;28;20044;-69
2021/08/28 08:42:24;;;;;;;2.20;2.00;;;14.30;90.40;;;;;;4993375;28;20038;-69
2021/08/28 08:44:51;;;;;;;2.40;2.20;;;14.30;90.60;;;;;;4983931;28;20482;-69
2021/08/28 08:47:18;;;;;;;2.50;2.28;;;14.30;90.20;;;;;;4990100;28;20053;-69
2021/08/28 08:49:44;;;;;;;2.47;2.25;;;14.40;89.20;;;;;;4990573;28;20085;-70
2021/08/28 08:52:11;;;;;;;4.53;2.42;;;14.30;89.10;;;;;;4979382;28;20030;-69
2021/08/28 08:54:37;;;;;;;4.72;3.00;;;14.30;89.80;;;;;;4993567;28;20030;-70
2021/08/28 08:57:03;;;;;;;2.88;2.20;;;14.30;90.00;;;;;;4993008;28;20033;-70
2021/08/28 08:59:29;;;;;;;2.58;2.38;;;14.20;89.40;;;;;;4991574;28;20467;-69
2021/08/28 09:01:54;;;;;;;2.55;2.28;;;14.30;90.00;;;;;;4988397;28;20047;-70
2021/08/28 09:04:20;;;;;;;4.35;2.65;;;14.30;88.60;;;;;;4989414;28;20030;-69
2021/08/28 09:06:46;;;;;;;9.32;2.97;;;14.20;89.00;;;;;;4988630;28;20018;-69
2021/08/28 09:09:13;;;;;;;4.93;3.00;;;14.20;88.50;;;;;;4991590;28;20031;-69
2021/08/28 09:11:55;;;;;;;3.00;2.40;;;14.20;88.80;;;;;;4990532;28;20061;-69
2021/08/28 09:14:22;;;;;;;2.83;2.55;;;14.30;89.40;;;;;;4991192;28;20041;-69
2021/08/28 09:16:50;;;;;;;3.30;2.42;;;14.30;89.60;;;;;;4984913;28;20041;-70
2021/08/28 09:19:16;;;;;;;3.20;2.53;;;14.40;89.20;;;;;;4999088;28;20117;-70
2021/08/28 09:21:43;;;;;;;3.30;2.72;;;14.50;90.50;;;;;;4989895;28;20038;-70
2021/08/28 09:24:11;;;;;;;3.20;2.67;;;14.70;91.00;;;;;;4986085;28;20030;-70
2021/08/28 09:26:42;;;;;;;2.88;2.38;;;15.00;89.60;;;;;;4986283;28;20022;-69
2021/08/28 09:29:11;;;;;;;2.65;2.20;;;15.10;87.80;;;;;;4986285;28;20031;-69
2021/08/28 09:31:37;;;;;;;2.20;2.00;;;15.30;90.00;;;;;;4987095;28;20034;-69
2021/08/28 09:34:13;;;;;;;4.20;2.30;;;15.30;85.50;;;;;;4993341;28;20075;-69
2021/08/28 09:36:39;;;;;;;2.47;1.95;;;15.30;85.10;;;;;;4994375;28;20034;-70
2021/08/28 09:39:05;;;;;;;2.33;2.13;;;15.30;85.10;;;;;;4989483;28;20546;-70
2021/08/28 09:41:32;;;;;;;2.95;1.77;;;15.20;86.00;;;;;;4991082;28;20077;-70
2021/08/28 09:44:07;;;;;;;2.17;1.67;;;15.20;84.80;;;;;;4991992;28;20022;-69
2021/08/28 09:46:33;;;;;;;2.35;1.92;;;15.10;84.10;;;;;;4991062;28;20068;-69
2021/08/28 09:49:00;;;;;;;2.22;2.10;;;15.10;85.30;;;;;;4986386;28;20050;-70
2021/08/28 09:51:32;;;;;;;3.13;2.22;;;15.10;86.30;;;;;;4990197;28;20480;-69
2021/08/28 09:54:01;;;;;;;3.28;2.22;;;15.10;86.20;;;;;;4991358;28;20129;-69
2021/08/28 09:56:27;;;;;;;1.92;1.83;;;15.10;85.10;;;;;;4991138;28;20038;-69
2021/08/28 09:58:53;;;;;;;2.10;1.90;;;15.10;84.20;;;;;;4981503;28;22243;-69
2021/08/28 10:01:21;;;;;;;5.47;3.50;;;15.10;84.30;;;;;;4986751;28;20486;-69
2021/08/28 10:04:00;;;;;;;2.78;2.00;;;15.00;85.40;;;;;;4976387;28;20723;-69
2021/08/28 10:06:26;;;;;;;1.85;1.75;;;15.10;85.00;;;;;;4983086;28;20097;-69
2021/08/28 10:08:53;;;;;;;3.03;2.20;;;15.10;84.30;;;;;;4981740;28;20098;-69
2021/08/28 10:11:19;;;;;;;2.30;2.10;;;15.10;85.10;;;;;;4982545;28;20092;-68
2021/08/28 10:13:49;;;;;;;1.77;1.67;;;15.20;85.30;;;;;;4985898;28;20031;-69
2021/08/28 10:16:15;;;;;;;2.38;1.88;;;15.10;84.80;;;;;;4981287;28;20030;-68
2021/08/28 10:18:45;;;;;;;1.90;1.80;;;15.10;84.20;;;;;;4979771;28;20078;-68
2021/08/28 10:21:12;;;;;;;2.00;1.90;;;15.00;83.90;;;;;;4992835;28;20505;-68
2021/08/28 10:23:39;;;;;;;2.03;1.92;;;15.00;85.10;;;;;;4976255;28;20034;-68
2021/08/28 10:26:09;;;;;;;2.35;2.13;;;15.10;83.80;;;;;;4980604;28;20133;-68
2021/08/28 10:28:39;;;;;;;1.60;1.50;;;15.00;82.60;;;;;;4991744;28;20034;-68
2021/08/28 10:31:07;;;;;;;1.70;1.60;;;15.00;82.50;;;;;;4989472;28;20066;-68
2021/08/28 10:33:32;;;;;;;1.77;1.58;;;14.90;82.80;;;;;;4986394;28;20378;-68
2021/08/28 10:35:58;;;;;;;1.55;1.45;;;14.90;83.40;;;;;;4989380;28;20031;-69
2021/08/28 10:38:24;;;;;;;1.90;1.80;;;14.90;84.30;;;;;;5000309;28;20117;-68
2021/08/28 10:40:55;;;;;;;2.13;1.92;;;14.90;84.10;;;;;;4988253;28;20589;-68
2021/08/28 10:43:22;;;;;;;1.63;1.52;;;14.90;84.60;;;;;;4982567;28;23400;-70
2021/08/28 10:45:49;;;;;;;2.10;1.90;;;14.90;84.40;;;;;;4983228;28;20033;-69
2021/08/28 10:48:15;;;;;;;1.63;1.52;;;14.90;84.80;;;;;;4991737;28;20037;-70
2021/08/28 10:50:43;;;;;;;3.47;1.88;;;14.80;84.70;;;;;;4989120;28;20030;-69
2021/08/28 10:53:13;;;;;;;2.28;2.03;;;14.90;85.50;;;;;;4992422;28;20426;-69
2021/08/28 10:55:47;;;;;;;2.17;1.60;;;14.90;85.60;;;;;;4987941;28;20085;-68
2021/08/28 10:58:20;;;;;;;1.60;1.50;;;15.00;84.80;;;;;;4990407;28;20026;-68
2021/08/28 11:00:50;;;;;;;1.60;1.50;;;15.00;85.30;;;;;;4991280;28;21948;-69
2021/08/28 11:03:31;;;;;;;2.40;2.03;;;15.00;84.20;;;;;;4988923;28;20031;-69
2021/08/28 11:06:15;;;;;;;1.75;1.65;;;15.00;84.40;;;;;;4990026;28;20034;-69
2021/08/28 11:08:51;;;;;;;1.70;1.60;;;14.90;83.30;;;;;;4987859;28;20034;-69
2021/08/28 11:11:21;;;;;;;1.65;1.55;;;14.90;83.00;;;;;;4985483;28;20030;-68
2021/08/28 11:14:11;;;;;;;1.70;1.60;;;14.90;83.00;;;;;;4985553;28;20018;-69
2021/08/28 11:16:40;;;;;;;1.65;1.55;;;14.90;84.70;;;;;;4986735;28;20114;-69
2021/08/28 11:19:07;;;;;;;1.90;1.80;;;14.80;85.00;;;;;;4988642;28;20048;-69
2021/08/28 11:21:46;;;;;;;2.08;1.67;;;14.90;85.00;;;;;;4987565;28;20034;-69
2021/08/28 11:24:14;;;;;;;1.98;1.80;;;14.90;84.60;;;;;;4987642;28;20074;-68
2021/08/28 11:26:40;;;;;;;1.90;1.80;;;14.90;84.40;;;;;;4984306;28;20149;-69
2021/08/28 11:29:25;;;;;;;1.63;1.52;;;14.90;84.70;;;;;;4987550;28;20031;-69
2021/08/28 11:32:23;;;;;;;1.70;1.60;;;14.90;84.00;;;;;;4984325;28;20038;-69
2021/08/28 11:34:52;;;;;;;1.70;1.60;;;14.80;83.70;;;;;;4954991;28;22196;-69
2021/08/28 11:37:23;;;;;;;;;;;14.80;84.20;;;;;;4981866;28;20042;-68
2021/08/28 11:39:50;;;;;;;1.90;1.80;;;15.00;84.40;;;;;;4981405;28;19914;-68
2021/08/28 11:42:16;;;;;;;1.55;1.45;;;15.10;83.60;;;;;;4976328;28;20035;-68
2021/08/28 11:44:50;;;;;;;2.33;2.13;;;15.20;83.40;;;;;;4995672;28;20026;-69
2021/08/28 11:47:17;;;;;;;1.80;1.70;;;15.20;81.40;;;;;;4981268;28;20026;-69
2021/08/28 11:49:43;;;;;;;3.83;2.03;;;15.10;78.90;;;;;;4983825;28;20054;-69
2021/08/28 11:52:09;;;;;;;1.85;1.70;;;15.10;79.70;;;;;;4980803;28;20168;-68
2021/08/28 11:54:35;;;;;;;1.70;1.60;;;15.20;81.70;;;;;;4979237;28;20039;-69
2021/08/28 11:57:20;;;;;;;1.70;1.60;;;15.20;82.30;;;;;;4979350;28;20041;-68
2021/08/28 11:59:46;;;;;;;3.28;1.50;;;15.20;81.50;;;;;;4956613;28;20042;-69
2021/08/28 12:02:13;;;;;;;1.35;1.25;;;15.20;79.80;;;;;;4955621;28;20035;-69
2021/08/28 12:04:39;;;;;;;1.58;1.48;;;15.20;80.30;;;;;;4962818;28;20031;-69
2021/08/28 12:07:05;;;;;;;1.40;1.27;;;15.10;80.20;;;;;;4962084;28;20435;-69
2021/08/28 12:09:32;;;;;;;2.20;1.58;;;15.10;79.20;;;;;;4962259;28;20507;-69
2021/08/28 12:11:59;;;;;;;1.95;1.40;;;15.00;78.90;;;;;;4943226;28;20089;-69
2021/08/28 12:14:30;;;;;;;1.45;1.45;;;14.90;80.10;;;;;;4940853;28;20046;-68
2021/08/28 12:16:56;;;;;;;1.50;1.40;;;15.00;80.50;;;;;;4941205;28;20031;-69
2021/08/28 12:19:26;;;;;;;1.50;1.40;;;15.00;80.40;;;;;;4959711;28;20046;-68
2021/08/28 12:21:55;;;;;;;1.65;1.55;;;14.90;81.30;;;;;;4952603;28;20065;-69
2021/08/28 12:24:26;;;;;;;1.90;1.80;;;15.00;83.60;;;;;;4955731;28;20042;-69
2021/08/28 12:27:03;;;;;;;1.65;1.55;;;14.90;83.90;;;;;;4959983;28;20441;-68
2021/08/28 12:29:30;;;;;;;2.07;1.83;;;15.00;84.50;;;;;;4948108;28;20681;-68
2021/08/28 12:32:04;;;;;;;1.80;1.60;;;15.00;83.80;;;;;;4982156;28;20450;-69
2021/08/28 12:34:32;;;;;;;1.52;1.42;;;15.00;81.90;;;;;;4981459;28;20553;-69
2021/08/28 12:37:00;;;;;;;3.05;2.00;;;15.00;82.50;;;;;;4980657;28;20080;-68
2021/08/28 12:39:27;;;;;;;1.55;1.40;;;15.00;82.20;;;;;;4977078;28;20045;-69
2021/08/28 12:41:54;;;;;;;1.70;1.60;;;14.90;80.00;;;;;;4980962;28;20053;-69
2021/08/28 12:44:20;;;;;;;2.08;1.60;;;14.90;80.30;;;;;;4985064;28;20097;-70
2021/08/28 12:46:48;;;;;;;3.88;1.35;;;14.90;81.70;;;;;;4985890;28;20026;-68
2021/08/28 12:49:18;;;;;;;1.55;1.45;;;14.90;81.70;;;;;;4982942;28;20027;-75
2021/08/28 12:51:56;;;;;;;1.60;1.50;;;14.90;79.00;;;;;;4984370;28;20038;-73